Terminal Aerodrome Forecast
Issued by NWS Sterling, VA

Current Version | Previous Version | Graphics & Text | Print | Product List | Glossary On
Versions: 1 2 3 4 5 6 7 8 9 10 11 12 13 14 15 16 17 18 19 20 21 22 23 24 25 26 27 28 29 30
000
FTUS41 KLWX 282054 AAA
TAFIAD
TAF AMD
KIAD 282054Z 2821/2924 VRB03KT P6SM SCT040
     FM290000 VRB03KT P6SM SKC
     FM290900 VRB03KT 3SM BR SKC
     FM291200 14005KT P6SM FEW250
     FM291700 17009KT P6SM SCT050=

USA.gov is the U.S. government's official web portal to all federal, state and local government web resources and services.